Aeroporto :
LOGIN :

Iscrizione | Disclaimer

   EN    FR    IT 

 










Sommario :    VFR   VFR Marginale   IFR   IFR Intensivo   IFR Molto Intensivo
Visibilità : 
Base nubi : 
>= 8 km
>= 3000ft
5 / 8 km
1000 / 3000 ft
1500m / 5 km
500 / 1000 ft
800 / 1500m
200 / 500 ft
< 800m
< 200 ft
Simboli :   Temporali  Nebbia  Neve Forte  Precipitazioni Forti  Vento > 20 kt
SIGMETs :   Varie  Temporali  Ghiacco  Turbolenza  Onda orograficha  Ceneri Vulcaniche







- Altitudine del aeroporto : 219 ft
- Codice IATA : DNR
- Carte del aeroporto


LFRD - Dinard

ULTIMO METAR :
  • 260200Z AUTO 17008KT 9999 FEW024 SCT032 BKN041 08/07 Q1007 TEMPO 3000 BR BKN020CB

METARs OBSOLETI :
  • 260130Z AUTO 17011KT 9999 FEW030/// BKN042/// BKN058/// ///TCU 08/07 Q1007 TEMPO SHRA BKN020CB
  • 260100Z AUTO 17011KT 9999 FEW038/// BKN056/// BKN084/// ///TCU 08/06 Q1007 TEMPO SHRA BKN020CB
  • 260030Z AUTO 16006KT 9999 FEW033/// SCT056/// BKN088/// ///TCU 08/06 Q1007 TEMPO SHRA BKN020CB
  • 260000Z AUTO 16007KT CAVOK 08/07 Q1007 TEMPO SHRA BKN020CB
  • 252330Z AUTO 13005KT 100V160 CAVOK 08/07 Q1007 TEMPO SHRA BKN020CB

TAF TAF LFRD
Valido dal 26 a 00 ore il 27 a 00 ore UTC


252300Z 2600/2624 16008KT 9999 BKN030
TEMPO 2600/2604 5000 SHRA BKN020CB
TEMPO 2604/2608 3000 BR BKN005
BECMG 2606/2608 27010KT
TEMPO 2611/2616 27015G25KT 4000 SHRA BKN020TCU
BECMG 2618/2620 20010KT
TEMPO 2619/2624 3000 RA BKN008
BECMG 2622/2624 26015G30KT
ATIS : +33 2 99 16 81 50
Nessun NOTAM noto per questo aeroporto.
2 SIGMETs conosciuti per la FIR Brest (LFRR) :
 
Temporali affogati
LFRR SIGMET 4 VALID 260100/260230 LFPW
LFRR BREST FIR/UIR EMBD TS FCST WI N4545 W00145 - N4330 W00145 - N4345 W00300 - N4545 W00230 - N4545 W00145 TOP FL270 STNR NC=
Temporali affogati
LFRR SIGMET 1 VALID 260045/260230 LFPW
LFRR BREST FIR/UIR EMBD TS FCST WI N4630 W00030 - N4630 W00130 - N4615 W00130 - N4615 W00200 - N4645 W00100 - N4630 W00030 TOP FL270 MOV NE 30KT NC=



MetMap, La meteo Aeronautica in un colpo d'occhio ! - Copyright ORBIFLY Dicembre 2007 - Disclaimer

ORBIFLY MET'MAP TEAM :

Programmazione e sviluppo : Alexandra Zaïnal
Concezione e sviluppo : Baudouin d'Aumeries
Co-Programmazione e sviluppo : Marc-Olivier Méhu
Supporto tecnico e logistico : Manuel Goepfert
Aiuto per la traduzione : Arnaldo La Scala

Contatto : metmap@orbifly.com




FONTI E CREDITI :

   NOAA